Bradley International Airport
KBDL : now visible

Airfield :











YOU CAN JOIN US ON...

 
LOGIN :

Register | Disclaimer

   EN    FR    IT 

 









Legend :    VFR   Marginal VFR   IFR   Intensive IFR   Very Intensive IFR
Visi :
Ceiling :
>= 8 km
>= 3000ft
5 to 8 km
1000 to 3000 ft
1500m to 5 km
500 to 1000 ft
800 to 1500m
200 to 500 ft
< 800m
< 200 ft
Symbols :   Thunderstorms  Fog  Heavy snow  Heavy precipitations  Wind > 20 kt






- Airport Elevation : 173 ft
- IATA code : BDL


KBDL - Bradley International

CURRENT METAR :
  • 160951Z 33008KT 4SM -RASN BR FEW006 OVC025 02/01 A2964 RMK AO2 RAB18 SLP038 P0004 T00170006 $

EXPIRED METARs :
  • 160851Z 34007KT 3SM -SN BR FEW005 FEW013 OVC022 02/00 A2964 RMK AO2 SLP038 P0003 60012 T00170000 56016 $
  • 160800Z 34007KT 4SM -SN BR FEW005 SCT013 OVC025 01/00 A2965 RMK AO2 P0000 T00110000 $
  • 160751Z 34007KT 3SM -SN BR SCT005 BKN012 OVC024 01/00 A2966 RMK AO2 SLP043 P0005 T00110000 $
  • 160738Z 34006KT 2 1/2SM -SN BR FEW003 BKN005 OVC013 01/00 A2966 RMK AO2 P0004 T00110000 $

TAF KBDL
Valid from the 16 at 09:00 until the 17 at 12:00 UTC


160905Z 1609/1712 34012KT 3SM -SNRA OVC008
FM161900 33012G23KT 3SM -RA BR OVC010
FM162200 33012G23KT 3SM BR VCSH OVC010
FM170700 34009KT P6SM OVC020
KZBW FIR / North America



MET'MAP, your aeronautical weather chart ! - Copyright ORBIFLY December 2007 - Disclaimer

ORBIFLY MET'MAP TEAM :

Programming & Development : Alexandra Zaïnal
Concept & original design : Baudouin d'Aumeries
Assistance for programming : Marc-Olivier Méhu
Technical & hardware support : Manuel Goepfert

Contact : metmap@orbifly.com




SOURCES & CREDITS :

   NOAA       Earth
Advisory